createdAt,value
2022-08-27T00:00:43.919Z,82.33
2022-08-27T00:03:10.922Z,82.62
2022-08-27T00:05:38.202Z,82.76
2022-08-27T00:08:05.935Z,82.92
2022-08-27T00:10:34.047Z,82.88
2022-08-27T00:13:01.029Z,83.32
2022-08-27T00:15:28.291Z,82.88
2022-08-27T00:17:58.028Z,82.51
2022-08-27T00:20:26.397Z,82.53
2022-08-27T00:22:53.689Z,82.72
2022-08-27T00:25:20.882Z,82.20
2022-08-27T00:27:47.620Z,82.35
2022-08-27T00:30:16.457Z,82.34
2022-08-27T00:32:43.377Z,82.40
2022-08-27T00:35:10.314Z,82.27
2022-08-27T00:37:37.063Z,82.58
2022-08-27T00:40:06.786Z,82.74
2022-08-27T00:42:33.610Z,82.90
2022-08-27T00:45:00.538Z,82.62
2022-08-27T00:47:30.109Z,82.77
2022-08-27T00:49:59.347Z,82.70
2022-08-27T00:52:32.738Z,82.60
2022-08-27T00:55:08.025Z,82.96
2022-08-27T00:57:36.530Z,83.14
2022-08-27T01:00:06.269Z,83.24
2022-08-27T01:02:33.165Z,82.88
2022-08-27T01:05:05.148Z,82.76
2022-08-27T01:07:33.826Z,82.61
2022-08-27T01:10:01.994Z,83.03
2022-08-27T01:12:30.839Z,82.74
2022-08-27T01:14:57.651Z,82.70
2022-08-27T01:17:25.080Z,83.10
2022-08-27T01:19:55.821Z,83.06
2022-08-27T01:22:34.623Z,83.31
2022-08-27T01:25:13.948Z,83.24
2022-08-27T01:27:41.946Z,83.95
2022-08-27T01:30:10.496Z,83.98
2022-08-27T01:32:37.590Z,83.89
2022-08-27T01:35:08.911Z,84.23
2022-08-27T01:37:35.943Z,84.18
2022-08-27T01:40:03.547Z,84.12
2022-08-27T01:42:37.320Z,83.74
2022-08-27T01:45:12.823Z,84.02
2022-08-27T01:47:40.006Z,83.97
2022-08-27T01:50:10.080Z,84.04
2022-08-27T01:52:37.101Z,84.15
2022-08-27T01:55:06.180Z,83.84
2022-08-27T01:57:33.768Z,83.98
2022-08-27T02:00:00.554Z,83.69
2022-08-27T02:02:27.364Z,84.01
2022-08-27T02:04:54.092Z,83.68
2022-08-27T02:07:20.833Z,83.99
2022-08-27T02:09:47.565Z,83.78
2022-08-27T02:12:14.462Z,83.82
2022-08-27T02:14:41.184Z,84.13
2022-08-27T02:17:08.263Z,84.39
2022-08-27T02:19:35.233Z,84.12
2022-08-27T02:22:02.003Z,84.51
2022-08-27T02:24:29.273Z,84.39
2022-08-27T02:26:56.923Z,84.37
2022-08-27T02:29:24.947Z,84.76
2022-08-27T02:31:51.713Z,85.32
2022-08-27T02:34:18.649Z,84.67
2022-08-27T02:36:45.446Z,84.41
2022-08-27T02:39:12.218Z,84.48
2022-08-27T02:41:38.972Z,84.48
2022-08-27T02:44:10.722Z,84.57
2022-08-27T02:46:41.855Z,83.96
2022-08-27T02:49:09.636Z,83.89
2022-08-27T02:51:37.091Z,84.14
2022-08-27T02:54:03.933Z,84.10
2022-08-27T02:56:30.682Z,84.15
2022-08-27T02:58:58.134Z,84.14
2022-08-27T03:01:25.012Z,84.38
2022-08-27T03:03:51.869Z,84.45
2022-08-27T03:06:18.621Z,84.47
2022-08-27T03:08:52.783Z,84.49
2022-08-27T03:11:23.738Z,84.31
2022-08-27T03:13:50.743Z,84.21
2022-08-27T03:16:17.718Z,84.45
2022-08-27T03:18:44.553Z,84.37
2022-08-27T03:21:20.886Z,84.50
2022-08-27T03:23:48.855Z,84.73
2022-08-27T03:26:16.289Z,84.64
2022-08-27T03:28:43.074Z,84.59
2022-08-27T03:31:15.513Z,84.57
2022-08-27T03:33:43.553Z,84.98
2022-08-27T03:36:10.322Z,84.92
2022-08-27T03:38:38.114Z,85.08
2022-08-27T03:41:05.952Z,85.18
2022-08-27T03:43:33.051Z,85.11
2022-08-27T03:46:01.642Z,85.05
2022-08-27T03:48:30.549Z,84.82
2022-08-27T03:50:57.396Z,85.05
2022-08-27T03:53:24.149Z,84.98
2022-08-27T03:55:50.890Z,84.82
2022-08-27T03:58:18.115Z,85.25
2022-08-27T04:00:45.350Z,85.11
2022-08-27T04:03:14.091Z,85.18
2022-08-27T04:05:42.228Z,85.12
2022-08-27T04:08:13.606Z,85.30
2022-08-27T04:10:43.492Z,85.10
2022-08-27T04:13:10.499Z,85.15
2022-08-27T04:15:40.477Z,84.52
2022-08-27T04:18:08.186Z,84.26
2022-08-27T04:20:36.110Z,84.50
2022-08-27T04:23:04.142Z,84.38
2022-08-27T04:25:31.317Z,84.66
2022-08-27T04:27:58.326Z,84.45
2022-08-27T04:30:25.038Z,84.26
2022-08-27T04:32:51.763Z,84.52
2022-08-27T04:35:18.579Z,84.36
2022-08-27T04:37:45.303Z,84.31
2022-08-27T04:40:12.529Z,84.05
2022-08-27T04:42:39.279Z,84.42
2022-08-27T04:45:06.444Z,84.47
2022-08-27T04:47:33.361Z,84.39
2022-08-27T04:50:00.175Z,84.46
2022-08-27T04:52:28.457Z,84.38
2022-08-27T04:54:55.446Z,84.43
2022-08-27T04:57:22.187Z,84.27
2022-08-27T04:59:48.991Z,84.19
2022-08-27T05:02:16.785Z,84.28
2022-08-27T05:04:43.567Z,84.94
2022-08-27T05:07:10.588Z,84.58
2022-08-27T05:09:37.676Z,84.90
2022-08-27T05:12:04.804Z,84.44
2022-08-27T05:14:32.807Z,84.75
2022-08-27T05:17:00.097Z,84.90
2022-08-27T05:19:27.461Z,85.33
2022-08-27T05:21:54.440Z,85.14
2022-08-27T05:24:21.448Z,85.36
2022-08-27T05:26:48.795Z,85.32
2022-08-27T05:29:15.935Z,85.01
2022-08-27T05:31:43.576Z,84.83
2022-08-27T05:34:18.571Z,84.76
2022-08-27T05:36:51.962Z,85.10
2022-08-27T05:39:18.781Z,85.08
2022-08-27T05:41:45.587Z,85.32
2022-08-27T05:44:40.051Z,85.06
2022-08-27T05:46:59.259Z,85.36
2022-08-27T05:49:26.262Z,85.73
2022-08-27T05:51:52.985Z,85.27
2022-08-27T05:54:20.099Z,85.01
2022-08-27T05:56:48.030Z,85.31
2022-08-27T05:59:34.782Z,84.82
2022-08-27T06:02:02.253Z,85.17
2022-08-27T06:04:29.013Z,85.20
2022-08-27T06:06:55.757Z,85.60
2022-08-27T06:09:25.287Z,85.31
2022-08-27T06:11:57.396Z,85.68
2022-08-27T06:14:24.314Z,85.58
2022-08-27T06:16:51.198Z,85.16
2022-08-27T06:19:18.404Z,84.98
2022-08-27T06:21:45.567Z,85.26
2022-08-27T06:24:13.092Z,85.15
2022-08-27T06:26:42.464Z,84.58
2022-08-27T06:29:10.112Z,84.64
2022-08-27T06:31:37.507Z,84.49
2022-08-27T06:34:09.003Z,84.27
2022-08-27T06:36:38.635Z,83.85
2022-08-27T06:39:06.281Z,83.78
2022-08-27T06:41:33.533Z,84.17
2022-08-27T06:44:03.250Z,84.31
2022-08-27T06:46:30.044Z,84.68
2022-08-27T06:49:00.157Z,84.71
2022-08-27T06:51:33.094Z,84.57
2022-08-27T06:54:03.510Z,84.38
2022-08-27T06:56:31.278Z,84.14
2022-08-27T06:59:00.968Z,84.44
2022-08-27T07:01:30.750Z,84.43
2022-08-27T07:03:59.907Z,84.15
2022-08-27T07:06:29.089Z,84.28
2022-08-27T07:08:57.188Z,83.61
2022-08-27T07:11:24.052Z,83.50
2022-08-27T07:13:51.552Z,83.73
2022-08-27T07:16:22.190Z,83.68
2022-08-27T07:18:55.787Z,83.03
2022-08-27T07:21:22.930Z,83.44
2022-08-27T07:23:52.226Z,83.65
2022-08-27T07:26:20.156Z,83.44
2022-08-27T07:28:47.302Z,84.03
2022-08-27T07:31:19.550Z,83.68
2022-08-27T07:33:52.674Z,83.37
2022-08-27T07:36:21.596Z,83.41
2022-08-27T07:39:00.673Z,83.55
2022-08-27T07:41:32.626Z,83.55
2022-08-27T07:44:18.993Z,84.18
2022-08-27T07:46:49.598Z,84.14
2022-08-27T07:49:17.572Z,84.33
2022-08-27T07:51:44.645Z,83.62
2022-08-27T07:54:11.423Z,83.40
2022-08-27T07:56:38.294Z,83.41
2022-08-27T07:59:05.010Z,83.93
2022-08-27T08:01:31.918Z,83.95
2022-08-27T08:03:59.168Z,83.33
2022-08-27T08:06:26.597Z,83.81
2022-08-27T08:08:53.399Z,83.73
2022-08-27T08:11:20.629Z,83.43
2022-08-27T08:13:47.686Z,83.41
2022-08-27T08:16:14.915Z,83.22
2022-08-27T08:18:41.733Z,83.38
2022-08-27T08:21:11.957Z,83.08
2022-08-27T08:23:38.760Z,83.53
2022-08-27T08:26:06.753Z,83.04
2022-08-27T08:28:34.049Z,82.66
2022-08-27T08:31:01.646Z,82.55
2022-08-27T08:33:29.039Z,82.94
2022-08-27T08:36:03.182Z,82.67
2022-08-27T08:38:30.397Z,83.24
2022-08-27T08:40:57.100Z,84.08
2022-08-27T08:43:29.284Z,83.42
2022-08-27T08:45:59.670Z,83.35
2022-08-27T08:48:29.805Z,82.86
2022-08-27T08:51:10.916Z,83.22
2022-08-27T08:53:58.636Z,83.18
2022-08-27T08:56:57.276Z,82.99
2022-08-27T08:59:34.738Z,83.15
2022-08-27T09:02:01.796Z,83.60
2022-08-27T09:04:29.976Z,83.78
2022-08-27T09:07:17.941Z,83.65
2022-08-27T09:10:07.097Z,83.80
2022-08-27T09:12:33.934Z,83.75
2022-08-27T09:15:17.287Z,82.75
2022-08-27T09:17:44.040Z,83.05
2022-08-27T09:20:15.348Z,82.37
2022-08-27T09:23:11.088Z,82.31
2022-08-27T09:25:40.798Z,82.73
2022-08-27T09:28:32.316Z,81.88
2022-08-27T09:31:08.021Z,81.28
2022-08-27T09:33:44.607Z,81.39
2022-08-27T09:36:23.749Z,81.18
2022-08-27T09:38:59.210Z,81.48
2022-08-27T09:41:29.480Z,81.40
2022-08-27T09:44:03.715Z,81.72
2022-08-27T09:46:31.380Z,81.43
2022-08-27T09:48:58.221Z,81.26
2022-08-27T09:51:28.642Z,81.75
2022-08-27T09:53:57.856Z,82.24
2022-08-27T09:56:32.045Z,82.58
2022-08-27T09:59:07.989Z,81.76
2022-08-27T10:01:57.893Z,83.13
2022-08-27T10:04:37.962Z,82.97
2022-08-27T10:07:26.297Z,83.04
2022-08-27T10:10:18.120Z,83.11
2022-08-27T10:12:54.270Z,82.54
2022-08-27T10:15:21.652Z,81.74
2022-08-27T10:18:04.201Z,79.40
2022-08-27T10:20:55.471Z,79.80
2022-08-27T10:23:44.530Z,79.11
2022-08-27T10:26:39.203Z,78.89
2022-08-27T10:29:29.106Z,79.10
2022-08-27T10:32:11.152Z,79.48
2022-08-27T10:35:13.873Z,79.73
2022-08-27T10:38:02.054Z,79.75
2022-08-27T10:40:37.272Z,79.52
2022-08-27T10:43:33.722Z,78.71
2022-08-27T10:46:32.997Z,79.10
2022-08-27T10:49:33.034Z,78.74
2022-08-27T10:52:22.898Z,78.80
2022-08-27T10:55:06.940Z,78.44
2022-08-27T10:57:58.895Z,78.62
2022-08-27T11:00:44.030Z,77.71
2022-08-27T11:03:14.650Z,77.79
2022-08-27T11:05:45.415Z,77.31
2022-08-27T11:08:28.044Z,78.41
2022-08-27T11:11:04.594Z,78.67
2022-08-27T11:13:48.101Z,78.90
2022-08-27T11:16:19.327Z,76.88
2022-08-27T11:18:52.207Z,75.82
2022-08-27T11:21:40.458Z,75.92
2022-08-27T11:24:33.167Z,74.90
2022-08-27T11:27:06.713Z,74.57
2022-08-27T11:29:37.696Z,74.67
2022-08-27T11:32:19.844Z,74.40
2022-08-27T11:35:00.575Z,74.23
2022-08-27T11:37:50.628Z,74.10
2022-08-27T11:40:39.232Z,72.89
2022-08-27T11:43:11.390Z,73.47
2022-08-27T11:45:39.643Z,74.60
2022-08-27T11:48:23.948Z,74.06
2022-08-27T11:51:00.824Z,74.51
2022-08-27T11:53:33.490Z,74.73
2022-08-27T11:56:34.911Z,74.63
2022-08-27T11:59:22.489Z,72.88
2022-08-27T12:01:52.544Z,74.02
2022-08-27T12:04:31.572Z,74.01
2022-08-27T12:07:27.334Z,73.92
2022-08-27T12:09:57.840Z,73.63
2022-08-27T12:12:58.486Z,74.10
2022-08-27T12:15:50.366Z,73.89
2022-08-27T12:18:41.880Z,74.06
2022-08-27T12:21:39.784Z,75.18
2022-08-27T12:24:30.869Z,74.21
2022-08-27T12:27:14.633Z,72.54
2022-08-27T12:29:56.246Z,72.52
2022-08-27T12:32:52.103Z,72.04
2022-08-27T12:35:19.363Z,71.98
2022-08-27T12:37:57.932Z,71.50
2022-08-27T12:40:31.071Z,70.81
2022-08-27T12:43:12.023Z,71.27
2022-08-27T12:45:49.539Z,71.67
2022-08-27T12:48:22.170Z,70.51
2022-08-27T12:50:54.190Z,69.53
2022-08-27T12:53:43.705Z,70.36
2022-08-27T12:56:29.473Z,69.98
2022-08-27T12:59:12.679Z,67.35
2022-08-27T13:01:53.906Z,67.57
2022-08-27T13:04:26.720Z,68.18
2022-08-27T13:06:53.542Z,65.73
2022-08-27T13:09:29.780Z,65.85
2022-08-27T13:11:57.209Z,65.87
2022-08-27T13:14:25.922Z,64.56
2022-08-27T13:17:00.705Z,66.09
2022-08-27T13:19:31.211Z,67.16
2022-08-27T13:21:59.359Z,67.66
2022-08-27T13:24:44.090Z,67.20
2022-08-27T13:27:11.561Z,67.50
2022-08-27T13:29:39.030Z,68.71
2022-08-27T13:32:06.093Z,68.04
2022-08-27T13:34:36.258Z,68.34
2022-08-27T13:37:21.347Z,68.06
2022-08-27T13:39:56.071Z,67.87
2022-08-27T13:42:25.253Z,68.80
2022-08-27T13:44:54.491Z,67.60
2022-08-27T13:47:26.779Z,68.00
2022-08-27T13:50:14.562Z,69.11
2022-08-27T13:53:01.538Z,68.11
2022-08-27T13:55:28.858Z,68.02
2022-08-27T13:57:55.762Z,68.57
2022-08-27T14:00:29.932Z,69.13
2022-08-27T14:02:58.918Z,69.36
2022-08-27T14:05:25.672Z,68.44
2022-08-27T14:08:11.863Z,68.31
2022-08-27T14:10:42.073Z,68.31
2022-08-27T14:13:21.642Z,68.79
2022-08-27T14:15:59.649Z,68.67
2022-08-27T14:18:57.471Z,69.17
2022-08-27T14:21:20.992Z,69.64
2022-08-27T14:23:48.082Z,69.87
2022-08-27T14:26:17.502Z,69.73
2022-08-27T14:28:45.161Z,68.90
2022-08-27T14:31:12.334Z,68.55
2022-08-27T14:33:39.486Z,68.34
2022-08-27T14:36:06.826Z,68.62
2022-08-27T14:38:34.695Z,69.78
2022-08-27T14:41:01.530Z,69.85
2022-08-27T14:43:28.406Z,69.95
2022-08-27T14:45:55.853Z,69.95
2022-08-27T14:48:28.920Z,70.99
2022-08-27T14:50:57.973Z,70.97
2022-08-27T14:53:25.521Z,71.13
2022-08-27T14:55:52.826Z,71.22
2022-08-27T14:58:20.521Z,71.61
2022-08-27T15:00:47.694Z,72.23
2022-08-27T15:03:14.562Z,72.17
2022-08-27T15:05:41.347Z,72.03
2022-08-27T15:08:13.302Z,71.79
2022-08-27T15:10:40.639Z,72.21
2022-08-27T15:13:09.626Z,71.76
2022-08-27T15:15:36.681Z,72.42
2022-08-27T15:18:03.653Z,72.26
2022-08-27T15:20:30.763Z,73.23
2022-08-27T15:22:57.549Z,72.86
2022-08-27T15:25:25.030Z,72.56
2022-08-27T15:27:52.559Z,72.79
2022-08-27T15:30:25.597Z,73.10
2022-08-27T15:32:52.788Z,73.02
2022-08-27T15:35:25.389Z,72.42
2022-08-27T15:37:52.679Z,72.09
2022-08-27T15:40:20.359Z,72.70
2022-08-27T15:42:50.749Z,73.44
2022-08-27T15:45:17.533Z,73.45
2022-08-27T15:47:44.350Z,73.78
2022-08-27T15:50:11.449Z,74.17
2022-08-27T15:52:40.954Z,74.33
2022-08-27T15:55:22.595Z,74.25
2022-08-27T15:57:49.949Z,74.48
2022-08-27T16:00:17.821Z,74.30
2022-08-27T16:02:45.289Z,74.05
2022-08-27T16:05:13.957Z,73.17
2022-08-27T16:07:40.885Z,73.50
2022-08-27T16:10:11.527Z,72.93
2022-08-27T16:12:38.330Z,72.85
2022-08-27T16:15:05.980Z,73.14
2022-08-27T16:17:33.079Z,72.62
2022-08-27T16:20:00.951Z,72.82
2022-08-27T16:22:28.651Z,73.07
2022-08-27T16:24:55.654Z,72.54
2022-08-27T16:27:22.613Z,72.21
2022-08-27T16:29:49.501Z,72.58
2022-08-27T16:32:18.884Z,72.91
2022-08-27T16:34:52.551Z,72.68
2022-08-27T16:37:24.492Z,72.63
2022-08-27T16:39:51.365Z,72.63
2022-08-27T16:42:18.278Z,72.64
2022-08-27T16:44:45.028Z,72.63
2022-08-27T16:47:11.883Z,72.00
2022-08-27T16:49:57.297Z,72.44
2022-08-27T16:52:24.155Z,72.75
2022-08-27T16:54:52.060Z,73.00
2022-08-27T16:57:18.795Z,73.19
2022-08-27T16:59:45.921Z,73.74
2022-08-27T17:02:30.438Z,73.11
2022-08-27T17:05:12.171Z,73.69
2022-08-27T17:07:44.615Z,74.06
2022-08-27T17:10:19.422Z,73.82
2022-08-27T17:12:47.298Z,73.61
2022-08-27T17:15:16.236Z,74.14
2022-08-27T17:17:43.112Z,74.12
2022-08-27T17:20:10.606Z,74.45
2022-08-27T17:22:37.800Z,74.73
2022-08-27T17:25:05.466Z,74.21
2022-08-27T17:27:32.291Z,73.88
2022-08-27T17:29:59.046Z,74.25
2022-08-27T17:32:26.429Z,74.16
2022-08-27T17:34:53.369Z,74.31
2022-08-27T17:37:20.169Z,75.04
2022-08-27T17:39:46.934Z,74.45
2022-08-27T17:42:13.831Z,74.67
2022-08-27T17:44:40.511Z,75.07
2022-08-27T17:47:08.668Z,75.12
2022-08-27T17:49:36.275Z,75.62
2022-08-27T17:52:11.321Z,75.89
2022-08-27T17:54:42.475Z,76.14
2022-08-27T17:57:19.534Z,76.38
2022-08-27T17:59:47.405Z,76.40
2022-08-27T18:02:23.161Z,76.79
2022-08-27T18:04:50.590Z,76.61
2022-08-27T18:07:19.323Z,77.03
2022-08-27T18:09:48.556Z,77.37
2022-08-27T18:12:18.708Z,77.81
2022-08-27T18:14:46.416Z,77.34
2022-08-27T18:17:13.820Z,77.41
2022-08-27T18:19:45.570Z,78.15
2022-08-27T18:22:12.690Z,78.22
2022-08-27T18:24:39.824Z,78.41
2022-08-27T18:27:06.622Z,77.97
2022-08-27T18:29:33.518Z,77.92
2022-08-27T18:32:00.275Z,78.16
2022-08-27T18:34:27.863Z,78.19
2022-08-27T18:36:54.750Z,77.61
2022-08-27T18:39:21.482Z,78.07
2022-08-27T18:41:52.947Z,78.49
2022-08-27T18:44:19.704Z,78.04
2022-08-27T18:46:46.831Z,78.73
2022-08-27T18:49:13.745Z,78.55
2022-08-27T18:51:43.698Z,78.54
2022-08-27T18:54:10.661Z,79.04
2022-08-27T18:56:37.590Z,78.59
2022-08-27T18:59:06.977Z,78.76
2022-08-27T19:01:33.885Z,78.96
2022-08-27T19:04:00.927Z,79.17
2022-08-27T19:06:27.768Z,79.00
2022-08-27T19:08:54.691Z,78.80
2022-08-27T19:11:21.434Z,78.42
2022-08-27T19:13:50.579Z,78.58
2022-08-27T19:16:22.043Z,78.53
2022-08-27T19:18:48.889Z,78.02
2022-08-27T19:21:15.765Z,77.58
2022-08-27T19:23:42.539Z,77.94
2022-08-27T19:26:19.235Z,78.00
2022-08-27T19:28:46.045Z,77.79
2022-08-27T19:31:14.430Z,77.88
2022-08-27T19:33:42.511Z,77.35
2022-08-27T19:36:15.471Z,77.63
2022-08-27T19:38:43.240Z,77.65
2022-08-27T19:41:10.331Z,77.39
2022-08-27T19:43:37.067Z,77.34
2022-08-27T19:46:05.050Z,76.81
2022-08-27T19:48:34.364Z,76.55
2022-08-27T19:51:01.238Z,77.11
2022-08-27T19:53:28.167Z,77.43
2022-08-27T19:55:55.044Z,77.93
2022-08-27T19:58:21.865Z,77.52
2022-08-27T20:00:48.716Z,78.06
2022-08-27T20:03:15.692Z,77.88
2022-08-27T20:05:43.631Z,78.08
2022-08-27T20:08:10.734Z,78.10
2022-08-27T20:10:40.382Z,78.01
2022-08-27T20:13:07.551Z,77.63
2022-08-27T20:15:35.127Z,77.99
2022-08-27T20:18:05.481Z,78.05
2022-08-27T20:20:33.313Z,78.04
2022-08-27T20:23:02.884Z,78.06
2022-08-27T20:25:29.915Z,77.73
2022-08-27T20:27:56.725Z,77.77
2022-08-27T20:30:26.150Z,78.09
2022-08-27T20:32:53.016Z,78.21
2022-08-27T20:35:20.393Z,78.17
2022-08-27T20:37:47.271Z,78.38
2022-08-27T20:40:21.028Z,77.96
2022-08-27T20:42:47.772Z,78.34
2022-08-27T20:47:43.354Z,78.06
2022-08-27T20:50:11.953Z,78.32
2022-08-27T20:52:39.591Z,78.64
2022-08-27T20:55:07.349Z,78.75
2022-08-27T20:57:34.086Z,78.62
2022-08-27T21:00:19.993Z,78.50
2022-08-27T21:02:47.315Z,78.41
2022-08-27T21:05:16.558Z,78.88
2022-08-27T21:07:44.668Z,78.66
2022-08-27T21:10:11.700Z,78.72
2022-08-27T21:12:39.596Z,79.05
2022-08-27T21:15:07.432Z,79.19
2022-08-27T21:17:34.687Z,79.07
2022-08-27T21:20:01.782Z,79.35
2022-08-27T21:22:28.659Z,79.62
2022-08-27T21:24:55.441Z,79.91
2022-08-27T21:27:22.215Z,80.12
2022-08-27T21:29:49.107Z,79.65
2022-08-27T21:32:16.911Z,79.66
2022-08-27T21:34:44.237Z,79.23
2022-08-27T21:37:13.792Z,79.87
2022-08-27T21:39:41.538Z,79.73
2022-08-27T21:42:08.643Z,79.69
2022-08-27T21:44:35.611Z,79.82
2022-08-27T21:47:03.955Z,79.48
2022-08-27T21:49:32.658Z,79.17
2022-08-27T21:52:03.659Z,79.24
2022-08-27T21:54:36.735Z,79.24
2022-08-27T21:57:04.942Z,79.33
2022-08-27T21:59:33.529Z,79.06
2022-08-27T22:02:01.303Z,79.25
2022-08-27T22:04:30.880Z,79.31
2022-08-27T22:06:59.093Z,79.41
2022-08-27T22:09:26.462Z,78.89
2022-08-27T22:11:53.287Z,78.90
2022-08-27T22:14:20.181Z,78.97
2022-08-27T22:16:46.890Z,79.13
2022-08-27T22:19:13.680Z,79.22
2022-08-27T22:21:40.399Z,79.89
2022-08-27T22:24:07.427Z,79.49
2022-08-27T22:26:34.182Z,79.51
2022-08-27T22:29:03.266Z,79.45
2022-08-27T22:31:32.615Z,79.30
2022-08-27T22:34:00.788Z,79.45
2022-08-27T22:36:27.795Z,79.23
2022-08-27T22:38:54.649Z,79.04
2022-08-27T22:41:26.679Z,78.94
2022-08-27T22:43:57.884Z,79.12
2022-08-27T22:46:24.841Z,79.19
2022-08-27T22:48:51.612Z,79.39
2022-08-27T22:51:18.423Z,79.26
2022-08-27T22:53:45.174Z,79.39
2022-08-27T22:56:12.516Z,79.42
2022-08-27T22:58:40.747Z,78.91
2022-08-27T23:01:13.608Z,78.97
2022-08-27T23:03:40.500Z,78.76
2022-08-27T23:06:07.265Z,78.23
2022-08-27T23:08:34.090Z,77.95
2022-08-27T23:11:02.546Z,78.23
2022-08-27T23:13:31.645Z,77.56
2022-08-27T23:15:59.582Z,77.43
2022-08-27T23:18:26.675Z,77.39
2022-08-27T23:20:53.389Z,76.96
2022-08-27T23:23:20.206Z,77.45
2022-08-27T23:26:05.898Z,77.16
2022-08-27T23:28:32.673Z,76.84
2022-08-27T23:30:59.457Z,76.49
2022-08-27T23:33:26.523Z,76.92
2022-08-27T23:35:53.315Z,76.70
2022-08-27T23:38:21.382Z,77.12
2022-08-27T23:40:49.781Z,76.91
2022-08-27T23:43:17.569Z,77.13
2022-08-27T23:45:44.333Z,77.12
2022-08-27T23:48:11.621Z,77.42
2022-08-27T23:50:39.608Z,77.47
2022-08-27T23:53:07.576Z,77.66
2022-08-27T23:55:34.888Z,77.52
2022-08-27T23:58:02.702Z,77.21
